sensor_id;sensor_type;location;lat;lon;timestamp;temperature;humidity
23124;DHT22;11731;48.592;8.858;2023-05-23T00:01:04;17.90;99.90
23124;DHT22;11731;48.592;8.858;2023-05-23T00:03:33;17.90;99.90
23124;DHT22;11731;48.592;8.858;2023-05-23T00:06:00;17.80;99.90
23124;DHT22;11731;48.592;8.858;2023-05-23T00:08:28;17.80;99.90
23124;DHT22;11731;48.592;8.858;2023-05-23T00:10:56;17.90;99.90
23124;DHT22;11731;48.592;8.858;2023-05-23T00:13:26;17.90;99.90
23124;DHT22;11731;48.592;8.858;2023-05-23T00:16:10;17.80;99.90
23124;DHT22;11731;48.592;8.858;2023-05-23T00:18:41;17.50;99.90
23124;DHT22;11731;48.592;8.858;2023-05-23T00:21:10;17.50;99.90
23124;DHT22;11731;48.592;8.858;2023-05-23T00:23:41;17.60;99.90
23124;DHT22;11731;48.592;8.858;2023-05-23T00:26:09;17.70;99.90
23124;DHT22;11731;48.592;8.858;2023-05-23T00:28:37;17.70;99.90
23124;DHT22;11731;48.592;8.858;2023-05-23T00:31:04;17.50;99.90
23124;DHT22;11731;48.592;8.858;2023-05-23T00:33:31;17.40;99.90
23124;DHT22;11731;48.592;8.858;2023-05-23T00:36:05;17.60;99.90
23124;DHT22;11731;48.592;8.858;2023-05-23T00:38:35;17.60;99.90
23124;DHT22;11731;48.592;8.858;2023-05-23T00:41:02;17.70;99.90
23124;DHT22;11731;48.592;8.858;2023-05-23T00:43:38;17.70;99.90
23124;DHT22;11731;48.592;8.858;2023-05-23T00:46:06;17.60;99.90
23124;DHT22;11731;48.592;8.858;2023-05-23T00:48:33;17.60;99.90
23124;DHT22;11731;48.592;8.858;2023-05-23T00:51:02;17.70;99.90
23124;DHT22;11731;48.592;8.858;2023-05-23T00:53:29;17.70;99.90
23124;DHT22;11731;48.592;8.858;2023-05-23T00:56:05;17.60;99.90
23124;DHT22;11731;48.592;8.858;2023-05-23T00:58:43;17.50;99.90
23124;DHT22;11731;48.592;8.858;2023-05-23T01:01:09;17.70;99.90
23124;DHT22;11731;48.592;8.858;2023-05-23T01:03:36;17.80;99.90
23124;DHT22;11731;48.592;8.858;2023-05-23T01:06:03;17.90;99.90
23124;DHT22;11731;48.592;8.858;2023-05-23T01:08:30;17.70;99.90
23124;DHT22;11731;48.592;8.858;2023-05-23T01:11:02;17.70;99.90
23124;DHT22;11731;48.592;8.858;2023-05-23T01:13:39;17.80;99.90
23124;DHT22;11731;48.592;8.858;2023-05-23T01:16:12;17.90;99.90
23124;DHT22;11731;48.592;8.858;2023-05-23T01:18:45;18.00;99.90
23124;DHT22;11731;48.592;8.858;2023-05-23T01:21:20;17.90;99.90
23124;DHT22;11731;48.592;8.858;2023-05-23T01:24:13;17.90;99.90
23124;DHT22;11731;48.592;8.858;2023-05-23T01:27:00;17.60;99.90
23124;DHT22;11731;48.592;8.858;2023-05-23T01:29:33;17.70;99.90
23124;DHT22;11731;48.592;8.858;2023-05-23T01:32:02;17.60;99.90
23124;DHT22;11731;48.592;8.858;2023-05-23T01:34:32;17.50;99.90
23124;DHT22;11731;48.592;8.858;2023-05-23T01:37:00;17.60;99.90
23124;DHT22;11731;48.592;8.858;2023-05-23T01:39:27;17.70;99.90
23124;DHT22;11731;48.592;8.858;2023-05-23T01:41:54;17.70;99.90
23124;DHT22;11731;48.592;8.858;2023-05-23T01:44:21;17.80;99.90
23124;DHT22;11731;48.592;8.858;2023-05-23T01:46:49;17.80;99.90
23124;DHT22;11731;48.592;8.858;2023-05-23T01:49:17;17.80;99.90
23124;DHT22;11731;48.592;8.858;2023-05-23T01:51:45;17.70;99.90
23124;DHT22;11731;48.592;8.858;2023-05-23T01:54:14;17.80;99.90
23124;DHT22;11731;48.592;8.858;2023-05-23T01:56:44;17.90;99.90
23124;DHT22;11731;48.592;8.858;2023-05-23T01:59:12;17.90;99.90
23124;DHT22;11731;48.592;8.858;2023-05-23T02:01:39;18.10;99.90
23124;DHT22;11731;48.592;8.858;2023-05-23T02:04:08;18.10;99.90
23124;DHT22;11731;48.592;8.858;2023-05-23T02:06:35;17.90;99.90
23124;DHT22;11731;48.592;8.858;2023-05-23T02:09:02;17.70;99.90
23124;DHT22;11731;48.592;8.858;2023-05-23T02:11:29;17.90;99.90
23124;DHT22;11731;48.592;8.858;2023-05-23T02:13:56;18.00;99.90
23124;DHT22;11731;48.592;8.858;2023-05-23T02:16:26;18.10;99.90
23124;DHT22;11731;48.592;8.858;2023-05-23T02:18:54;18.30;99.90
23124;DHT22;11731;48.592;8.858;2023-05-23T02:21:25;18.40;99.90
23124;DHT22;11731;48.592;8.858;2023-05-23T02:23:59;18.30;99.90
23124;DHT22;11731;48.592;8.858;2023-05-23T02:26:27;18.30;99.90
23124;DHT22;11731;48.592;8.858;2023-05-23T02:28:54;18.30;99.90
23124;DHT22;11731;48.592;8.858;2023-05-23T02:31:21;18.20;99.90
23124;DHT22;11731;48.592;8.858;2023-05-23T02:33:48;18.30;99.90
23124;DHT22;11731;48.592;8.858;2023-05-23T02:36:14;18.10;99.90
23124;DHT22;11731;48.592;8.858;2023-05-23T02:38:43;18.30;99.90
23124;DHT22;11731;48.592;8.858;2023-05-23T02:41:10;18.30;99.90
23124;DHT22;11731;48.592;8.858;2023-05-23T02:43:37;18.30;99.90
23124;DHT22;11731;48.592;8.858;2023-05-23T02:46:04;18.40;99.90
23124;DHT22;11731;48.592;8.858;2023-05-23T02:48:31;18.40;99.90
23124;DHT22;11731;48.592;8.858;2023-05-23T02:50:57;18.50;99.90
23124;DHT22;11731;48.592;8.858;2023-05-23T02:53:25;18.70;99.90
23124;DHT22;11731;48.592;8.858;2023-05-23T02:55:55;18.60;99.90
23124;DHT22;11731;48.592;8.858;2023-05-23T02:58:22;18.70;99.90
23124;DHT22;11731;48.592;8.858;2023-05-23T03:00:49;18.80;99.90
23124;DHT22;11731;48.592;8.858;2023-05-23T03:03:16;18.70;99.90
23124;DHT22;11731;48.592;8.858;2023-05-23T03:05:43;18.60;99.90
23124;DHT22;11731;48.592;8.858;2023-05-23T03:08:10;18.60;99.90
23124;DHT22;11731;48.592;8.858;2023-05-23T03:10:37;18.70;99.90
23124;DHT22;11731;48.592;8.858;2023-05-23T03:13:08;18.60;99.90
23124;DHT22;11731;48.592;8.858;2023-05-23T03:15:35;18.70;99.90
23124;DHT22;11731;48.592;8.858;2023-05-23T03:18:02;18.80;99.90
23124;DHT22;11731;48.592;8.858;2023-05-23T03:20:29;18.90;99.90
23124;DHT22;11731;48.592;8.858;2023-05-23T03:22:58;19.00;99.90
23124;DHT22;11731;48.592;8.858;2023-05-23T03:25:25;19.20;99.90
23124;DHT22;11731;48.592;8.858;2023-05-23T03:27:52;19.20;99.90
23124;DHT22;11731;48.592;8.858;2023-05-23T03:30:27;19.10;99.90
23124;DHT22;11731;48.592;8.858;2023-05-23T03:32:54;18.90;99.90
23124;DHT22;11731;48.592;8.858;2023-05-23T03:35:21;18.70;99.90
23124;DHT22;11731;48.592;8.858;2023-05-23T03:37:48;18.60;99.90
23124;DHT22;11731;48.592;8.858;2023-05-23T03:40:19;18.40;99.90
23124;DHT22;11731;48.592;8.858;2023-05-23T03:43:00;18.50;99.90
23124;DHT22;11731;48.592;8.858;2023-05-23T03:45:32;18.50;99.90
23124;DHT22;11731;48.592;8.858;2023-05-23T03:48:01;18.70;99.90
23124;DHT22;11731;48.592;8.858;2023-05-23T03:50:28;18.50;99.90
23124;DHT22;11731;48.592;8.858;2023-05-23T03:52:55;18.40;99.90
23124;DHT22;11731;48.592;8.858;2023-05-23T03:55:22;18.30;99.90
23124;DHT22;11731;48.592;8.858;2023-05-23T03:57:52;18.50;99.90
23124;DHT22;11731;48.592;8.858;2023-05-23T04:00:20;18.60;99.90
23124;DHT22;11731;48.592;8.858;2023-05-23T04:02:48;18.70;99.90
23124;DHT22;11731;48.592;8.858;2023-05-23T04:05:18;18.70;99.90
23124;DHT22;11731;48.592;8.858;2023-05-23T04:07:48;18.70;99.90
23124;DHT22;11731;48.592;8.858;2023-05-23T04:10:19;18.80;99.90
23124;DHT22;11731;48.592;8.858;2023-05-23T04:12:46;18.80;99.90
23124;DHT22;11731;48.592;8.858;2023-05-23T04:15:13;18.90;99.90
23124;DHT22;11731;48.592;8.858;2023-05-23T04:17:46;18.80;99.90
23124;DHT22;11731;48.592;8.858;2023-05-23T04:20:18;18.90;99.90
23124;DHT22;11731;48.592;8.858;2023-05-23T04:22:45;19.10;99.90
23124;DHT22;11731;48.592;8.858;2023-05-23T04:25:12;19.10;99.90
23124;DHT22;11731;48.592;8.858;2023-05-23T04:27:39;19.30;99.90
23124;DHT22;11731;48.592;8.858;2023-05-23T04:30:07;19.60;99.90
23124;DHT22;11731;48.592;8.858;2023-05-23T04:32:34;19.40;99.90
23124;DHT22;11731;48.592;8.858;2023-05-23T04:35:02;18.80;99.90
23124;DHT22;11731;48.592;8.858;2023-05-23T04:37:31;18.60;99.90
23124;DHT22;11731;48.592;8.858;2023-05-23T04:39:58;18.70;99.90
23124;DHT22;11731;48.592;8.858;2023-05-23T04:42:25;18.90;99.90
23124;DHT22;11731;48.592;8.858;2023-05-23T04:44:54;19.00;99.90
23124;DHT22;11731;48.592;8.858;2023-05-23T04:47:23;18.50;99.90
23124;DHT22;11731;48.592;8.858;2023-05-23T04:49:53;18.30;99.90
23124;DHT22;11731;48.592;8.858;2023-05-23T04:52:21;18.30;99.90
23124;DHT22;11731;48.592;8.858;2023-05-23T04:54:50;18.10;99.90
23124;DHT22;11731;48.592;8.858;2023-05-23T04:57:18;17.80;99.90
23124;DHT22;11731;48.592;8.858;2023-05-23T04:59:45;17.70;99.90
23124;DHT22;11731;48.592;8.858;2023-05-23T05:02:12;17.50;99.90
23124;DHT22;11731;48.592;8.858;2023-05-23T05:04:39;17.20;99.90
23124;DHT22;11731;48.592;8.858;2023-05-23T05:07:09;17.10;99.90
23124;DHT22;11731;48.592;8.858;2023-05-23T05:09:36;17.10;99.90
23124;DHT22;11731;48.592;8.858;2023-05-23T05:12:05;17.30;99.90
23124;DHT22;11731;48.592;8.858;2023-05-23T05:14:34;17.40;99.90
23124;DHT22;11731;48.592;8.858;2023-05-23T05:17:01;17.50;99.90
23124;DHT22;11731;48.592;8.858;2023-05-23T05:19:28;17.40;99.90
23124;DHT22;11731;48.592;8.858;2023-05-23T05:21:56;17.50;99.90
23124;DHT22;11731;48.592;8.858;2023-05-23T05:24:24;17.20;99.90
23124;DHT22;11731;48.592;8.858;2023-05-23T05:26:52;17.10;99.90
23124;DHT22;11731;48.592;8.858;2023-05-23T05:29:21;16.90;99.90
23124;DHT22;11731;48.592;8.858;2023-05-23T05:31:48;16.90;99.90
23124;DHT22;11731;48.592;8.858;2023-05-23T05:34:15;17.20;99.90
23124;DHT22;11731;48.592;8.858;2023-05-23T05:36:42;17.30;99.90
23124;DHT22;11731;48.592;8.858;2023-05-23T05:39:12;17.40;99.90
23124;DHT22;11731;48.592;8.858;2023-05-23T05:41:39;17.10;99.90
23124;DHT22;11731;48.592;8.858;2023-05-23T05:44:07;17.00;99.90
23124;DHT22;11731;48.592;8.858;2023-05-23T05:46:36;17.10;99.90
23124;DHT22;11731;48.592;8.858;2023-05-23T05:49:03;17.10;99.90
23124;DHT22;11731;48.592;8.858;2023-05-23T05:51:30;17.20;99.90
23124;DHT22;11731;48.592;8.858;2023-05-23T05:53:57;17.30;99.90
23124;DHT22;11731;48.592;8.858;2023-05-23T05:56:25;17.20;99.90
23124;DHT22;11731;48.592;8.858;2023-05-23T05:58:52;17.00;99.90
23124;DHT22;11731;48.592;8.858;2023-05-23T06:01:19;17.00;99.90
23124;DHT22;11731;48.592;8.858;2023-05-23T06:03:48;17.00;99.90
23124;DHT22;11731;48.592;8.858;2023-05-23T06:06:15;17.00;99.90
23124;DHT22;11731;48.592;8.858;2023-05-23T06:08:42;17.10;99.90
23124;DHT22;11731;48.592;8.858;2023-05-23T06:11:09;17.20;99.90
23124;DHT22;11731;48.592;8.858;2023-05-23T06:13:36;17.20;99.90
23124;DHT22;11731;48.592;8.858;2023-05-23T06:16:04;17.30;99.90
23124;DHT22;11731;48.592;8.858;2023-05-23T06:18:34;17.50;99.90
23124;DHT22;11731;48.592;8.858;2023-05-23T06:21:02;17.60;99.90
23124;DHT22;11731;48.592;8.858;2023-05-23T06:23:29;17.40;99.90
23124;DHT22;11731;48.592;8.858;2023-05-23T06:25:57;17.70;99.90
23124;DHT22;11731;48.592;8.858;2023-05-23T06:28:24;17.60;99.90
23124;DHT22;11731;48.592;8.858;2023-05-23T06:30:51;17.70;99.90
23124;DHT22;11731;48.592;8.858;2023-05-23T06:33:19;17.90;99.90
23124;DHT22;11731;48.592;8.858;2023-05-23T06:35:46;17.90;99.90
23124;DHT22;11731;48.592;8.858;2023-05-23T06:38:14;18.10;99.90
23124;DHT22;11731;48.592;8.858;2023-05-23T06:40:41;17.90;99.90
23124;DHT22;11731;48.592;8.858;2023-05-23T06:43:08;17.80;99.90
23124;DHT22;11731;48.592;8.858;2023-05-23T06:45:34;17.90;99.90
23124;DHT22;11731;48.592;8.858;2023-05-23T06:48:02;17.70;99.90
23124;DHT22;11731;48.592;8.858;2023-05-23T06:50:29;17.70;99.90
23124;DHT22;11731;48.592;8.858;2023-05-23T06:52:56;17.60;99.90
23124;DHT22;11731;48.592;8.858;2023-05-23T06:55:25;17.50;99.90
23124;DHT22;11731;48.592;8.858;2023-05-23T06:57:52;17.30;99.90
23124;DHT22;11731;48.592;8.858;2023-05-23T07:00:19;17.60;99.90
23124;DHT22;11731;48.592;8.858;2023-05-23T07:02:47;17.70;99.90
23124;DHT22;11731;48.592;8.858;2023-05-23T07:05:14;17.70;99.90
23124;DHT22;11731;48.592;8.858;2023-05-23T07:07:42;17.90;99.90
23124;DHT22;11731;48.592;8.858;2023-05-23T07:10:09;17.80;99.90
23124;DHT22;11731;48.592;8.858;2023-05-23T07:15:34;17.80;99.90
23124;DHT22;11731;48.592;8.858;2023-05-23T07:18:01;18.00;99.90
23124;DHT22;11731;48.592;8.858;2023-05-23T07:20:28;18.20;99.90
23124;DHT22;11731;48.592;8.858;2023-05-23T07:22:55;18.20;99.90
23124;DHT22;11731;48.592;8.858;2023-05-23T07:25:27;18.10;99.90
23124;DHT22;11731;48.592;8.858;2023-05-23T07:27:54;18.20;99.90
23124;DHT22;11731;48.592;8.858;2023-05-23T07:30:21;18.00;99.90
23124;DHT22;11731;48.592;8.858;2023-05-23T07:32:49;17.70;99.90
23124;DHT22;11731;48.592;8.858;2023-05-23T07:35:20;17.80;99.90
23124;DHT22;11731;48.592;8.858;2023-05-23T07:38:25;17.90;99.90
23124;DHT22;11731;48.592;8.858;2023-05-23T07:41:05;17.80;99.90
23124;DHT22;11731;48.592;8.858;2023-05-23T07:43:44;17.80;99.90
23124;DHT22;11731;48.592;8.858;2023-05-23T07:46:11;17.50;99.90
23124;DHT22;11731;48.592;8.858;2023-05-23T07:48:49;17.30;99.90
23124;DHT22;11731;48.592;8.858;2023-05-23T07:51:16;17.10;99.90
23124;DHT22;11731;48.592;8.858;2023-05-23T07:53:45;16.80;99.90
23124;DHT22;11731;48.592;8.858;2023-05-23T07:56:12;16.50;99.90
23124;DHT22;11731;48.592;8.858;2023-05-23T07:58:45;16.70;99.90
23124;DHT22;11731;48.592;8.858;2023-05-23T08:01:12;16.70;99.90
23124;DHT22;11731;48.592;8.858;2023-05-23T08:03:41;16.90;99.90
23124;DHT22;11731;48.592;8.858;2023-05-23T08:06:21;17.00;99.90
23124;DHT22;11731;48.592;8.858;2023-05-23T08:08:49;17.20;99.90
23124;DHT22;11731;48.592;8.858;2023-05-23T08:11:16;17.50;99.90
23124;DHT22;11731;48.592;8.858;2023-05-23T08:13:43;17.70;99.90
23124;DHT22;11731;48.592;8.858;2023-05-23T08:16:11;17.60;99.90
23124;DHT22;11731;48.592;8.858;2023-05-23T08:18:38;17.70;99.90
23124;DHT22;11731;48.592;8.858;2023-05-23T08:21:05;17.90;99.90
23124;DHT22;11731;48.592;8.858;2023-05-23T08:23:33;17.60;99.90
23124;DHT22;11731;48.592;8.858;2023-05-23T08:26:00;17.70;99.90
23124;DHT22;11731;48.592;8.858;2023-05-23T08:28:27;17.30;99.90
23124;DHT22;11731;48.592;8.858;2023-05-23T08:30:54;17.30;99.90
23124;DHT22;11731;48.592;8.858;2023-05-23T08:33:22;17.40;99.90
23124;DHT22;11731;48.592;8.858;2023-05-23T08:35:49;17.10;99.90
23124;DHT22;11731;48.592;8.858;2023-05-23T08:38:16;17.10;99.90
23124;DHT22;11731;48.592;8.858;2023-05-23T08:40:49;17.10;99.90
23124;DHT22;11731;48.592;8.858;2023-05-23T08:43:16;17.30;99.90
23124;DHT22;11731;48.592;8.858;2023-05-23T08:45:44;17.30;99.90
23124;DHT22;11731;48.592;8.858;2023-05-23T08:48:12;17.20;99.90
23124;DHT22;11731;48.592;8.858;2023-05-23T08:50:41;17.40;99.90
23124;DHT22;11731;48.592;8.858;2023-05-23T08:53:08;17.50;99.90
23124;DHT22;11731;48.592;8.858;2023-05-23T08:55:37;17.50;99.90
23124;DHT22;11731;48.592;8.858;2023-05-23T08:58:05;17.30;99.90
23124;DHT22;11731;48.592;8.858;2023-05-23T09:00:32;17.00;99.90
23124;DHT22;11731;48.592;8.858;2023-05-23T09:03:02;17.10;99.90
23124;DHT22;11731;48.592;8.858;2023-05-23T09:05:29;17.30;99.90
23124;DHT22;11731;48.592;8.858;2023-05-23T09:07:58;17.50;99.90
23124;DHT22;11731;48.592;8.858;2023-05-23T09:10:27;17.50;99.90
23124;DHT22;11731;48.592;8.858;2023-05-23T09:12:55;17.60;99.90
23124;DHT22;11731;48.592;8.858;2023-05-23T09:15:24;18.10;99.90
23124;DHT22;11731;48.592;8.858;2023-05-23T09:17:51;18.40;99.90
23124;DHT22;11731;48.592;8.858;2023-05-23T09:20:18;18.20;99.90
23124;DHT22;11731;48.592;8.858;2023-05-23T09:22:46;18.40;99.90
23124;DHT22;11731;48.592;8.858;2023-05-23T09:25:13;18.50;99.90
23124;DHT22;11731;48.592;8.858;2023-05-23T09:27:42;18.40;99.90
23124;DHT22;11731;48.592;8.858;2023-05-23T09:30:10;18.80;99.90
23124;DHT22;11731;48.592;8.858;2023-05-23T09:32:38;18.80;99.90
23124;DHT22;11731;48.592;8.858;2023-05-23T09:35:07;18.70;99.90
23124;DHT22;11731;48.592;8.858;2023-05-23T09:37:38;18.80;99.90
23124;DHT22;11731;48.592;8.858;2023-05-23T09:40:06;18.70;99.90
23124;DHT22;11731;48.592;8.858;2023-05-23T09:42:40;18.60;99.90
23124;DHT22;11731;48.592;8.858;2023-05-23T09:45:08;18.60;99.90
23124;DHT22;11731;48.592;8.858;2023-05-23T09:47:35;18.90;99.90
23124;DHT22;11731;48.592;8.858;2023-05-23T09:50:04;19.20;99.90
23124;DHT22;11731;48.592;8.858;2023-05-23T09:52:35;18.90;99.90
23124;DHT22;11731;48.592;8.858;2023-05-23T09:55:03;18.80;99.90
23124;DHT22;11731;48.592;8.858;2023-05-23T09:57:34;18.50;99.90
23124;DHT22;11731;48.592;8.858;2023-05-23T10:00:03;18.70;99.90
23124;DHT22;11731;48.592;8.858;2023-05-23T10:02:54;18.70;99.90
23124;DHT22;11731;48.592;8.858;2023-05-23T10:05:36;18.80;99.90
23124;DHT22;11731;48.592;8.858;2023-05-23T10:08:07;18.70;99.90
23124;DHT22;11731;48.592;8.858;2023-05-23T10:13:51;18.50;99.90
23124;DHT22;11731;48.592;8.858;2023-05-23T10:16:22;18.50;99.90
23124;DHT22;11731;48.592;8.858;2023-05-23T10:18:54;18.70;99.90
23124;DHT22;11731;48.592;8.858;2023-05-23T10:21:25;19.10;99.90
23124;DHT22;11731;48.592;8.858;2023-05-23T10:23:58;19.30;99.90
23124;DHT22;11731;48.592;8.858;2023-05-23T10:26:28;19.40;99.90
23124;DHT22;11731;48.592;8.858;2023-05-23T10:28:56;19.70;99.90
23124;DHT22;11731;48.592;8.858;2023-05-23T10:31:27;19.80;99.90
23124;DHT22;11731;48.592;8.858;2023-05-23T10:34:36;20.20;99.90
23124;DHT22;11731;48.592;8.858;2023-05-23T10:37:14;20.30;99.90
23124;DHT22;11731;48.592;8.858;2023-05-23T10:39:53;20.00;99.90
23124;DHT22;11731;48.592;8.858;2023-05-23T10:42:29;20.10;99.90
23124;DHT22;11731;48.592;8.858;2023-05-23T10:45:16;20.40;99.90
23124;DHT22;11731;48.592;8.858;2023-05-23T10:47:45;20.80;99.90
23124;DHT22;11731;48.592;8.858;2023-05-23T10:50:15;20.90;99.90
23124;DHT22;11731;48.592;8.858;2023-05-23T10:52:45;20.70;99.90
23124;DHT22;11731;48.592;8.858;2023-05-23T10:55:12;20.80;99.90
23124;DHT22;11731;48.592;8.858;2023-05-23T10:57:43;21.10;99.90
23124;DHT22;11731;48.592;8.858;2023-05-23T11:00:18;20.60;99.90
23124;DHT22;11731;48.592;8.858;2023-05-23T11:02:58;20.40;99.90
23124;DHT22;11731;48.592;8.858;2023-05-23T11:05:28;20.60;99.90
23124;DHT22;11731;48.592;8.858;2023-05-23T11:08:08;21.00;99.90
23124;DHT22;11731;48.592;8.858;2023-05-23T11:10:54;20.80;99.90
23124;DHT22;11731;48.592;8.858;2023-05-23T11:13:21;20.90;99.90
23124;DHT22;11731;48.592;8.858;2023-05-23T11:15:49;20.90;99.90
23124;DHT22;11731;48.592;8.858;2023-05-23T11:18:21;20.20;99.90
23124;DHT22;11731;48.592;8.858;2023-05-23T11:20:51;19.70;99.90
23124;DHT22;11731;48.592;8.858;2023-05-23T11:23:40;19.70;99.90
23124;DHT22;11731;48.592;8.858;2023-05-23T11:26:28;19.60;99.90
23124;DHT22;11731;48.592;8.858;2023-05-23T11:28:57;19.90;99.90
23124;DHT22;11731;48.592;8.858;2023-05-23T11:31:42;20.00;99.90
23124;DHT22;11731;48.592;8.858;2023-05-23T11:34:12;19.70;99.90
23124;DHT22;11731;48.592;8.858;2023-05-23T11:36:39;20.00;99.90
23124;DHT22;11731;48.592;8.858;2023-05-23T11:39:08;20.40;99.90
23124;DHT22;11731;48.592;8.858;2023-05-23T11:41:35;20.70;99.90
23124;DHT22;11731;48.592;8.858;2023-05-23T11:44:10;20.60;99.90
23124;DHT22;11731;48.592;8.858;2023-05-23T11:46:38;20.60;99.90
23124;DHT22;11731;48.592;8.858;2023-05-23T11:49:37;20.90;99.90
23124;DHT22;11731;48.592;8.858;2023-05-23T11:56:22;20.70;99.90
23124;DHT22;11731;48.592;8.858;2023-05-23T11:58:21;20.60;99.90
23124;DHT22;11731;48.592;8.858;2023-05-23T12:00:48;20.70;99.90
23124;DHT22;11731;48.592;8.858;2023-05-23T12:03:16;20.80;99.90
23124;DHT22;11731;48.592;8.858;2023-05-23T12:05:45;20.50;99.90
23124;DHT22;11731;48.592;8.858;2023-05-23T12:08:25;20.40;99.90
23124;DHT22;11731;48.592;8.858;2023-05-23T12:10:58;20.70;99.90
23124;DHT22;11731;48.592;8.858;2023-05-23T12:13:27;21.10;99.90
23124;DHT22;11731;48.592;8.858;2023-05-23T12:16:21;20.70;99.90
23124;DHT22;11731;48.592;8.858;2023-05-23T12:18:48;20.40;99.90
23124;DHT22;11731;48.592;8.858;2023-05-23T12:21:15;20.80;99.90
23124;DHT22;11731;48.592;8.858;2023-05-23T12:23:42;21.00;99.90
23124;DHT22;11731;48.592;8.858;2023-05-23T12:26:11;20.80;99.90
23124;DHT22;11731;48.592;8.858;2023-05-23T12:28:39;20.40;99.90
23124;DHT22;11731;48.592;8.858;2023-05-23T12:31:22;20.00;99.90
23124;DHT22;11731;48.592;8.858;2023-05-23T12:33:52;19.90;99.90
23124;DHT22;11731;48.592;8.858;2023-05-23T12:36:23;20.30;99.90
23124;DHT22;11731;48.592;8.858;2023-05-23T12:38:51;20.60;99.90
23124;DHT22;11731;48.592;8.858;2023-05-23T12:41:20;20.50;99.90
23124;DHT22;11731;48.592;8.858;2023-05-23T12:43:50;20.60;99.90
23124;DHT22;11731;48.592;8.858;2023-05-23T12:46:17;20.50;99.90
23124;DHT22;11731;48.592;8.858;2023-05-23T12:48:45;20.40;99.60
23124;DHT22;11731;48.592;8.858;2023-05-23T12:51:12;19.90;99.80
23124;DHT22;11731;48.592;8.858;2023-05-23T12:53:39;19.80;99.90
23124;DHT22;11731;48.592;8.858;2023-05-23T12:56:31;20.10;99.80
23124;DHT22;11731;48.592;8.858;2023-05-23T12:58:58;20.60;99.80
23124;DHT22;11731;48.592;8.858;2023-05-23T13:01:26;20.80;98.80
23124;DHT22;11731;48.592;8.858;2023-05-23T13:03:53;20.30;99.30
23124;DHT22;11731;48.592;8.858;2023-05-23T13:06:20;19.90;99.60
23124;DHT22;11731;48.592;8.858;2023-05-23T13:08:50;19.70;99.30
23124;DHT22;11731;48.592;8.858;2023-05-23T13:11:23;19.50;99.60
23124;DHT22;11731;48.592;8.858;2023-05-23T13:13:55;19.60;99.80
23124;DHT22;11731;48.592;8.858;2023-05-23T13:16:22;20.00;99.80
23124;DHT22;11731;48.592;8.858;2023-05-23T13:18:49;20.10;99.70
23124;DHT22;11731;48.592;8.858;2023-05-23T13:21:16;19.90;99.90
23124;DHT22;11731;48.592;8.858;2023-05-23T13:24:04;19.60;99.90
23124;DHT22;11731;48.592;8.858;2023-05-23T13:26:46;19.60;99.90
23124;DHT22;11731;48.592;8.858;2023-05-23T13:29:15;19.90;99.20
23124;DHT22;11731;48.592;8.858;2023-05-23T13:32:05;19.90;99.30
23124;DHT22;11731;48.592;8.858;2023-05-23T13:34:32;20.20;99.20
23124;DHT22;11731;48.592;8.858;2023-05-23T13:37:02;21.00;98.30
23124;DHT22;11731;48.592;8.858;2023-05-23T13:39:30;21.20;97.70
23124;DHT22;11731;48.592;8.858;2023-05-23T13:41:57;21.00;98.10
23124;DHT22;11731;48.592;8.858;2023-05-23T13:44:26;20.90;98.20
23124;DHT22;11731;48.592;8.858;2023-05-23T13:46:53;20.50;98.70
23124;DHT22;11731;48.592;8.858;2023-05-23T13:49:30;20.80;98.70
23124;DHT22;11731;48.592;8.858;2023-05-23T13:51:57;21.30;98.40
23124;DHT22;11731;48.592;8.858;2023-05-23T13:54:32;21.60;97.50
23124;DHT22;11731;48.592;8.858;2023-05-23T13:56:59;21.40;98.00
23124;DHT22;11731;48.592;8.858;2023-05-23T13:59:28;20.80;98.60
23124;DHT22;11731;48.592;8.858;2023-05-23T14:02:00;20.90;98.60
23124;DHT22;11731;48.592;8.858;2023-05-23T14:04:31;20.70;99.20
23124;DHT22;11731;48.592;8.858;2023-05-23T14:06:58;20.50;99.60
23124;DHT22;11731;48.592;8.858;2023-05-23T14:09:25;20.40;99.90
23124;DHT22;11731;48.592;8.858;2023-05-23T14:11:52;20.60;99.90
23124;DHT22;11731;48.592;8.858;2023-05-23T14:14:19;20.60;99.90
23124;DHT22;11731;48.592;8.858;2023-05-23T14:16:49;20.10;99.90
23124;DHT22;11731;48.592;8.858;2023-05-23T14:19:16;19.90;99.90
23124;DHT22;11731;48.592;8.858;2023-05-23T14:21:43;19.80;99.90
23124;DHT22;11731;48.592;8.858;2023-05-23T14:24:10;19.70;99.90
23124;DHT22;11731;48.592;8.858;2023-05-23T14:26:37;19.50;99.90
23124;DHT22;11731;48.592;8.858;2023-05-23T14:29:04;19.60;99.90
23124;DHT22;11731;48.592;8.858;2023-05-23T14:31:31;19.30;99.90
23124;DHT22;11731;48.592;8.858;2023-05-23T14:33:59;19.40;99.90
23124;DHT22;11731;48.592;8.858;2023-05-23T14:36:32;19.80;99.90
23124;DHT22;11731;48.592;8.858;2023-05-23T14:39:01;19.90;99.90
23124;DHT22;11731;48.592;8.858;2023-05-23T14:41:29;19.80;99.90
23124;DHT22;11731;48.592;8.858;2023-05-23T14:43:57;19.90;99.90
23124;DHT22;11731;48.592;8.858;2023-05-23T14:46:24;20.00;99.90
23124;DHT22;11731;48.592;8.858;2023-05-23T14:48:51;19.70;99.90
23124;DHT22;11731;48.592;8.858;2023-05-23T14:51:19;19.80;99.90
23124;DHT22;11731;48.592;8.858;2023-05-23T14:53:46;20.00;99.90
23124;DHT22;11731;48.592;8.858;2023-05-23T14:56:13;20.30;99.90
23124;DHT22;11731;48.592;8.858;2023-05-23T14:58:40;20.30;99.80
23124;DHT22;11731;48.592;8.858;2023-05-23T15:01:10;20.30;99.90
23124;DHT22;11731;48.592;8.858;2023-05-23T15:03:38;20.10;99.90
23124;DHT22;11731;48.592;8.858;2023-05-23T15:06:05;19.80;99.90
23124;DHT22;11731;48.592;8.858;2023-05-23T15:08:34;20.10;99.90
23124;DHT22;11731;48.592;8.858;2023-05-23T15:11:09;20.40;99.50
23124;DHT22;11731;48.592;8.858;2023-05-23T15:13:52;20.20;99.60
23124;DHT22;11731;48.592;8.858;2023-05-23T15:16:19;20.40;99.40
23124;DHT22;11731;48.592;8.858;2023-05-23T15:18:46;20.70;99.30
23124;DHT22;11731;48.592;8.858;2023-05-23T15:21:13;20.90;98.90
23124;DHT22;11731;48.592;8.858;2023-05-23T15:23:41;21.10;98.40
23124;DHT22;11731;48.592;8.858;2023-05-23T15:26:08;21.10;98.50
23124;DHT22;11731;48.592;8.858;2023-05-23T15:28:35;21.10;98.50
23124;DHT22;11731;48.592;8.858;2023-05-23T15:31:01;20.80;98.90
23124;DHT22;11731;48.592;8.858;2023-05-23T15:33:28;20.80;99.30
23124;DHT22;11731;48.592;8.858;2023-05-23T15:35:55;21.00;99.10
23124;DHT22;11731;48.592;8.858;2023-05-23T15:38:23;20.90;99.60
23124;DHT22;11731;48.592;8.858;2023-05-23T15:40:52;20.40;99.90
23124;DHT22;11731;48.592;8.858;2023-05-23T15:43:20;20.30;99.90
23124;DHT22;11731;48.592;8.858;2023-05-23T15:45:49;20.20;99.90
23124;DHT22;11731;48.592;8.858;2023-05-23T15:48:16;20.20;99.90
23124;DHT22;11731;48.592;8.858;2023-05-23T15:50:43;20.10;99.90
23124;DHT22;11731;48.592;8.858;2023-05-23T15:53:10;19.80;99.90
23124;DHT22;11731;48.592;8.858;2023-05-23T16:02:25;20.40;99.90